sensor_id;sensor_type;location;lat;lon;timestamp;pressure;altitude;pressure_sealevel;temperature;humidity
57779;BME280;43608;49.486;9.640;2023-05-20T00:00:18;98926.63;;;12.29;71.20
57779;BME280;43608;49.486;9.640;2023-05-20T00:00:48;98895.78;;;12.09;71.09
57779;BME280;43608;49.486;9.640;2023-05-20T00:01:19;98922.25;;;12.23;71.24
57779;BME280;43608;49.486;9.640;2023-05-20T00:01:50;98924.00;;;12.26;71.25
57779;BME280;43608;49.486;9.640;2023-05-20T00:02:20;98812.88;;;11.61;71.63
57779;BME280;43608;49.486;9.640;2023-05-20T00:02:50;98919.63;;;12.21;71.51
57779;BME280;43608;49.486;9.640;2023-05-20T00:03:21;98918.75;;;12.19;71.50
57779;BME280;43608;49.486;9.640;2023-05-20T00:03:51;98927.56;;;12.23;71.52
57779;BME280;43608;49.486;9.640;2023-05-20T00:04:22;98925.81;;;12.22;71.89
57779;BME280;43608;49.486;9.640;2023-05-20T00:04:52;98912.59;;;12.13;71.60
57779;BME280;43608;49.486;9.640;2023-05-20T00:05:22;98901.13;;;12.06;71.52
57779;BME280;43608;49.486;9.640;2023-05-20T00:05:53;98917.03;;;12.12;71.62
57779;BME280;43608;49.486;9.640;2023-05-20T00:06:23;98928.50;;;12.19;71.64
57779;BME280;43608;49.486;9.640;2023-05-20T00:06:53;98912.59;;;12.11;71.74
57779;BME280;43608;49.486;9.640;2023-05-20T00:07:24;98907.31;;;12.06;71.84
57779;BME280;43608;49.486;9.640;2023-05-20T00:07:55;98925.84;;;12.17;71.89
57779;BME280;43608;49.486;9.640;2023-05-20T00:08:25;98918.78;;;12.12;71.88
57779;BME280;43608;49.486;9.640;2023-05-20T00:08:55;98907.28;;;12.08;72.06
57779;BME280;43608;49.486;9.640;2023-05-20T00:09:28;98905.56;;;12.07;72.22
57779;BME280;43608;49.486;9.640;2023-05-20T00:09:59;98916.13;;;12.12;72.19
57779;BME280;43608;49.486;9.640;2023-05-20T00:10:32;98923.19;;;12.14;72.01
57779;BME280;43608;49.486;9.640;2023-05-20T00:11:02;98932.03;;;12.18;72.21
57779;BME280;43608;49.486;9.640;2023-05-20T00:11:33;98904.66;;;12.06;71.75
57779;BME280;43608;49.486;9.640;2023-05-20T00:12:04;98916.13;;;12.16;72.30
57779;BME280;43608;49.486;9.640;2023-05-20T00:12:34;98919.63;;;12.17;72.07
57779;BME280;43608;49.486;9.640;2023-05-20T00:13:05;98920.53;;;12.16;72.17
57779;BME280;43608;49.486;9.640;2023-05-20T00:13:38;98917.00;;;12.11;72.25
57779;BME280;43608;49.486;9.640;2023-05-20T00:14:08;98899.34;;;12.05;72.17
57779;BME280;43608;49.486;9.640;2023-05-20T00:14:41;98892.34;;;11.98;72.50
57779;BME280;43608;49.486;9.640;2023-05-20T00:15:11;98911.75;;;12.06;72.40
57779;BME280;43608;49.486;9.640;2023-05-20T00:15:41;98917.06;;;12.07;72.60
57779;BME280;43608;49.486;9.640;2023-05-20T00:16:12;98910.88;;;12.07;72.63
57779;BME280;43608;49.486;9.640;2023-05-20T00:16:43;98906.47;;;12.04;72.54
57779;BME280;43608;49.486;9.640;2023-05-20T00:17:13;98890.56;;;11.92;72.77
57779;BME280;43608;49.486;9.640;2023-05-20T00:17:43;98911.78;;;12.04;72.74
57779;BME280;43608;49.486;9.640;2023-05-20T00:18:16;98899.41;;;11.96;73.06
57779;BME280;43608;49.486;9.640;2023-05-20T00:18:47;98905.59;;;12.01;72.68
57779;BME280;43608;49.486;9.640;2023-05-20T00:19:17;98907.38;;;11.96;72.82
57779;BME280;43608;49.486;9.640;2023-05-20T00:19:47;98912.69;;;12.00;73.03
57779;BME280;43608;49.486;9.640;2023-05-20T00:20:18;98910.00;;;11.99;72.97
57779;BME280;43608;49.486;9.640;2023-05-20T00:20:48;98891.47;;;11.88;73.23
57779;BME280;43608;49.486;9.640;2023-05-20T00:21:18;98879.09;;;11.81;73.08
57779;BME280;43608;49.486;9.640;2023-05-20T00:21:49;98893.19;;;11.92;73.21
57779;BME280;43608;49.486;9.640;2023-05-20T00:22:19;98903.81;;;11.94;73.02
57779;BME280;43608;49.486;9.640;2023-05-20T00:22:50;98910.03;;;11.97;73.29
57779;BME280;43608;49.486;9.640;2023-05-20T00:23:20;98890.59;;;11.84;73.18
57779;BME280;43608;49.486;9.640;2023-05-20T00:23:50;98892.38;;;11.85;73.23
57779;BME280;43608;49.486;9.640;2023-05-20T00:24:21;98890.56;;;11.86;73.23
57779;BME280;43608;49.486;9.640;2023-05-20T00:24:51;98894.13;;;11.88;73.13
57779;BME280;43608;49.486;9.640;2023-05-20T00:25:22;98905.59;;;11.95;73.33
57779;BME280;43608;49.486;9.640;2023-05-20T00:25:52;98895.00;;;11.88;73.58
57779;BME280;43608;49.486;9.640;2023-05-20T00:26:27;98903.81;;;11.94;73.48
57779;BME280;43608;49.486;9.640;2023-05-20T00:26:58;98884.44;;;11.79;73.40
57779;BME280;43608;49.486;9.640;2023-05-20T00:27:28;98900.31;;;11.90;73.44
57779;BME280;43608;49.486;9.640;2023-05-20T00:27:58;98898.53;;;11.86;73.58
57779;BME280;43608;49.486;9.640;2023-05-20T00:28:29;98890.59;;;11.84;73.43
57779;BME280;43608;49.486;9.640;2023-05-20T00:29:00;98911.81;;;11.90;73.66
57779;BME280;43608;49.486;9.640;2023-05-20T00:29:30;98899.47;;;11.85;73.31
57779;BME280;43608;49.486;9.640;2023-05-20T00:30:01;98907.41;;;11.88;73.46
57779;BME280;43608;49.486;9.640;2023-05-20T00:30:31;98895.03;;;11.84;73.58
57779;BME280;43608;49.486;9.640;2023-05-20T00:31:02;98902.97;;;11.87;73.60
57779;BME280;43608;49.486;9.640;2023-05-20T00:31:32;98900.38;;;11.82;73.70
57779;BME280;43608;49.486;9.640;2023-05-20T00:32:03;98900.34;;;11.84;73.46
57779;BME280;43608;49.486;9.640;2023-05-20T00:32:36;98890.63;;;11.77;73.44
57779;BME280;43608;49.486;9.640;2023-05-20T00:33:06;98902.13;;;11.85;73.82
57779;BME280;43608;49.486;9.640;2023-05-20T00:33:37;98894.13;;;11.83;73.89
57779;BME280;43608;49.486;9.640;2023-05-20T00:34:08;98880.94;;;11.71;73.76
57779;BME280;43608;49.486;9.640;2023-05-20T00:34:39;98903.84;;;11.86;73.64
57779;BME280;43608;49.486;9.640;2023-05-20T00:35:09;98871.22;;;11.68;73.81
57779;BME280;43608;49.486;9.640;2023-05-20T00:35:40;98889.75;;;11.78;74.08
57779;BME280;43608;49.486;9.640;2023-05-20T00:36:10;98901.22;;;11.84;73.83
57779;BME280;43608;49.486;9.640;2023-05-20T00:36:41;98888.84;;;11.80;73.84
57779;BME280;43608;49.486;9.640;2023-05-20T00:37:12;98894.16;;;11.80;73.98
57779;BME280;43608;49.486;9.640;2023-05-20T00:37:42;98888.88;;;11.77;73.92
57779;BME280;43608;49.486;9.640;2023-05-20T00:38:13;98877.41;;;11.72;73.91
57779;BME280;43608;49.486;9.640;2023-05-20T00:38:43;98887.97;;;11.83;74.05
57779;BME280;43608;49.486;9.640;2023-05-20T00:39:14;98892.38;;;11.84;74.02
57779;BME280;43608;49.486;9.640;2023-05-20T00:39:44;98892.38;;;11.85;73.99
57779;BME280;43608;49.486;9.640;2023-05-20T00:40:15;98898.56;;;11.87;74.14
57779;BME280;43608;49.486;9.640;2023-05-20T00:40:45;98897.66;;;11.88;73.87
57779;BME280;43608;49.486;9.640;2023-05-20T00:41:16;98901.22;;;11.87;74.18
57779;BME280;43608;49.486;9.640;2023-05-20T00:41:46;98686.09;;;10.57;74.08
57779;BME280;43608;49.486;9.640;2023-05-20T00:42:50;98872.97;;;11.72;74.44
57779;BME280;43608;49.486;9.640;2023-05-20T00:43:21;98891.47;;;11.86;74.29
57779;BME280;43608;49.486;9.640;2023-05-20T00:43:56;98884.44;;;11.79;74.16
57779;BME280;43608;49.486;9.640;2023-05-20T00:44:27;98888.84;;;11.85;74.10
57779;BME280;43608;49.486;9.640;2023-05-20T00:44:57;98894.13;;;11.86;74.23
57779;BME280;43608;49.486;9.640;2023-05-20T00:45:27;98887.09;;;11.82;74.24
57779;BME280;43608;49.486;9.640;2023-05-20T00:45:59;98878.22;;;11.80;74.39
57779;BME280;43608;49.486;9.640;2023-05-20T00:46:30;98890.63;;;11.83;74.39
57779;BME280;43608;49.486;9.640;2023-05-20T00:47:00;98885.31;;;11.83;74.17
57779;BME280;43608;49.486;9.640;2023-05-20T00:47:32;98887.94;;;11.86;74.51
57779;BME280;43608;49.486;9.640;2023-05-20T00:48:04;98888.78;;;11.89;74.20
57779;BME280;43608;49.486;9.640;2023-05-20T00:48:39;98875.56;;;11.80;74.27
57779;BME280;43608;49.486;9.640;2023-05-20T00:49:11;98886.16;;;11.86;74.50
57779;BME280;43608;49.486;9.640;2023-05-20T00:49:43;98876.41;;;11.87;74.52
57779;BME280;43608;49.486;9.640;2023-05-20T00:50:13;98893.19;;;11.92;74.47
57779;BME280;43608;49.486;9.640;2023-05-20T00:50:44;98875.56;;;11.82;74.59
57779;BME280;43608;49.486;9.640;2023-05-20T00:51:14;98890.53;;;11.94;74.82
57779;BME280;43608;49.486;9.640;2023-05-20T00:51:46;98894.97;;;11.96;74.52
57779;BME280;43608;49.486;9.640;2023-05-20T00:52:20;98865.84;;;11.82;74.43
57779;BME280;43608;49.486;9.640;2023-05-20T00:52:51;98887.00;;;11.93;74.36
57779;BME280;43608;49.486;9.640;2023-05-20T00:53:24;98883.47;;;11.93;74.55
57779;BME280;43608;49.486;9.640;2023-05-20T00:53:54;98878.19;;;11.88;74.67
57779;BME280;43608;49.486;9.640;2023-05-20T00:54:25;98884.38;;;11.92;74.49
57779;BME280;43608;49.486;9.640;2023-05-20T00:54:56;98868.47;;;11.84;74.42
57779;BME280;43608;49.486;9.640;2023-05-20T00:55:27;98891.44;;;11.97;74.46
57779;BME280;43608;49.486;9.640;2023-05-20T00:55:58;98890.59;;;11.95;74.50
57779;BME280;43608;49.486;9.640;2023-05-20T00:56:28;98898.47;;;12.04;74.43
57779;BME280;43608;49.486;9.640;2023-05-20T00:56:59;98870.19;;;11.89;74.40
57779;BME280;43608;49.486;9.640;2023-05-20T00:57:32;98895.81;;;12.06;74.44
57779;BME280;43608;49.486;9.640;2023-05-20T00:58:05;98888.75;;;12.02;74.36
57779;BME280;43608;49.486;9.640;2023-05-20T00:58:36;98888.75;;;12.02;74.42
57779;BME280;43608;49.486;9.640;2023-05-20T00:59:07;98864.88;;;11.89;74.28
57779;BME280;43608;49.486;9.640;2023-05-20T00:59:38;98886.97;;;12.04;74.31
57779;BME280;43608;49.486;9.640;2023-05-20T01:00:09;98883.44;;;12.02;74.38
57779;BME280;43608;49.486;9.640;2023-05-20T01:00:41;98880.78;;;12.03;74.15
57779;BME280;43608;49.486;9.640;2023-05-20T01:01:12;98891.34;;;12.08;74.08
57779;BME280;43608;49.486;9.640;2023-05-20T01:01:42;98897.56;;;12.10;74.22
57779;BME280;43608;49.486;9.640;2023-05-20T01:02:13;98892.28;;;12.07;74.35
57779;BME280;43608;49.486;9.640;2023-05-20T01:02:43;98875.50;;;12.00;74.21
57779;BME280;43608;49.486;9.640;2023-05-20T01:03:14;98884.31;;;12.04;74.15
57779;BME280;43608;49.486;9.640;2023-05-20T01:03:45;98880.75;;;12.06;74.24
57779;BME280;43608;49.486;9.640;2023-05-20T01:04:15;98884.25;;;12.12;74.06
57779;BME280;43608;49.486;9.640;2023-05-20T01:04:46;98893.94;;;12.16;74.26
57779;BME280;43608;49.486;9.640;2023-05-20T01:05:17;98886.91;;;12.12;74.17
57779;BME280;43608;49.486;9.640;2023-05-20T01:05:47;98889.53;;;12.16;74.26
57779;BME280;43608;49.486;9.640;2023-05-20T01:06:18;98891.31;;;12.17;74.21
57779;BME280;43608;49.486;9.640;2023-05-20T01:06:48;98885.16;;;12.12;74.09
57779;BME280;43608;49.486;9.640;2023-05-20T01:07:19;98892.19;;;12.18;74.08
57779;BME280;43608;49.486;9.640;2023-05-20T01:07:49;98871.00;;;12.05;74.01
57779;BME280;43608;49.486;9.640;2023-05-20T01:08:24;98894.84;;;12.18;74.13
57779;BME280;43608;49.486;9.640;2023-05-20T01:08:55;98891.28;;;12.19;74.36
57779;BME280;43608;49.486;9.640;2023-05-20T01:09:25;98877.16;;;12.11;74.27
57779;BME280;43608;49.486;9.640;2023-05-20T01:09:56;98894.84;;;12.18;74.30
57779;BME280;43608;49.486;9.640;2023-05-20T01:10:27;98871.00;;;12.05;74.29
57779;BME280;43608;49.486;9.640;2023-05-20T01:11:21;98889.53;;;12.16;74.18
57779;BME280;43608;49.486;9.640;2023-05-20T01:12:12;98897.47;;;12.19;74.49
57779;BME280;43608;49.486;9.640;2023-05-20T01:12:49;98885.13;;;12.15;74.26
57779;BME280;43608;49.486;9.640;2023-05-20T01:13:23;98885.97;;;12.16;74.10
57779;BME280;43608;49.486;9.640;2023-05-20T01:14:02;98885.09;;;12.18;74.47
57779;BME280;43608;49.486;9.640;2023-05-20T01:14:39;98864.78;;;12.08;74.23
57779;BME280;43608;49.486;9.640;2023-05-20T01:15:17;98884.22;;;12.16;74.42
57779;BME280;43608;49.486;9.640;2023-05-20T01:15:49;98890.38;;;12.21;74.52
57779;BME280;43608;49.486;9.640;2023-05-20T01:16:23;98872.72;;;12.13;74.42
57779;BME280;43608;49.486;9.640;2023-05-20T01:16:54;98884.19;;;12.22;74.46
57779;BME280;43608;49.486;9.640;2023-05-20T01:17:29;98886.84;;;12.24;74.44
57779;BME280;43608;49.486;9.640;2023-05-20T01:18:02;98854.19;;;12.10;74.28
57779;BME280;43608;49.486;9.640;2023-05-20T01:18:35;98868.28;;;12.18;74.26
57779;BME280;43608;49.486;9.640;2023-05-20T01:19:58;98850.59;;;12.11;74.25
57779;BME280;43608;49.486;9.640;2023-05-20T01:20:07;98863.84;;;12.17;74.13
57779;BME280;43608;49.486;9.640;2023-05-20T01:20:39;98878.81;;;12.27;74.36
57779;BME280;43608;49.486;9.640;2023-05-20T01:21:10;98879.69;;;12.29;74.25
57779;BME280;43608;49.486;9.640;2023-05-20T01:21:42;98864.66;;;12.23;74.25
57779;BME280;43608;49.486;9.640;2023-05-20T01:22:13;98870.88;;;12.26;74.32
57779;BME280;43608;49.486;9.640;2023-05-20T01:22:54;98870.81;;;12.29;74.16
57779;BME280;43608;49.486;9.640;2023-05-20T01:23:33;98853.19;;;12.21;74.26
57779;BME280;43608;49.486;9.640;2023-05-20T01:24:06;98877.00;;;12.32;73.99
57779;BME280;43608;49.486;9.640;2023-05-20T01:24:41;98871.72;;;12.31;74.10
57779;BME280;43608;49.486;9.640;2023-05-20T01:25:12;98869.94;;;12.30;74.27
57779;BME280;43608;49.486;9.640;2023-05-20T01:25:42;98860.19;;;12.29;74.26
57779;BME280;43608;49.486;9.640;2023-05-20T01:26:13;98858.47;;;12.25;74.12
57779;BME280;43608;49.486;9.640;2023-05-20T01:26:43;98872.56;;;12.33;74.21
57779;BME280;43608;49.486;9.640;2023-05-20T01:27:17;98881.41;;;12.36;74.13
57779;BME280;43608;49.486;9.640;2023-05-20T01:27:50;98872.56;;;12.34;73.91
57779;BME280;43608;49.486;9.640;2023-05-20T01:28:21;98875.22;;;12.36;73.99
57779;BME280;43608;49.486;9.640;2023-05-20T01:28:52;98863.72;;;12.32;74.18
57779;BME280;43608;49.486;9.640;2023-05-20T01:29:24;98855.81;;;12.28;74.07
57779;BME280;43608;49.486;9.640;2023-05-20T01:29:55;98853.13;;;12.26;73.87
57779;BME280;43608;49.486;9.640;2023-05-20T01:30:33;98862.00;;;12.28;74.27
57779;BME280;43608;49.486;9.640;2023-05-20T01:31:08;98876.06;;;12.41;73.80
57779;BME280;43608;49.486;9.640;2023-05-20T01:31:40;98875.19;;;12.37;74.09
57779;BME280;43608;49.486;9.640;2023-05-20T01:32:20;98851.34;;;12.28;73.53
57779;BME280;43608;49.486;9.640;2023-05-20T01:32:54;98853.97;;;12.31;74.09
57779;BME280;43608;49.486;9.640;2023-05-20T01:33:28;98872.50;;;12.44;73.79
57779;BME280;43608;49.486;9.640;2023-05-20T01:33:59;98854.91;;;12.30;73.76
57779;BME280;43608;49.486;9.640;2023-05-20T01:34:30;98882.22;;;12.45;74.01
57779;BME280;43608;49.486;9.640;2023-05-20T01:35:01;98876.91;;;12.45;73.65
57779;BME280;43608;49.486;9.640;2023-05-20T01:35:33;98884.91;;;12.45;73.93
57779;BME280;43608;49.486;9.640;2023-05-20T01:36:04;98875.16;;;12.44;73.74
57779;BME280;43608;49.486;9.640;2023-05-20T01:36:36;98864.56;;;12.37;73.72
57779;BME280;43608;49.486;9.640;2023-05-20T01:37:07;98880.44;;;12.47;73.76
57779;BME280;43608;49.486;9.640;2023-05-20T01:37:39;98853.06;;;12.37;74.03
57779;BME280;43608;49.486;9.640;2023-05-20T01:38:10;98874.25;;;12.45;73.63
57779;BME280;43608;49.486;9.640;2023-05-20T01:38:42;98870.69;;;12.47;73.72
57779;BME280;43608;49.486;9.640;2023-05-20T01:39:13;98862.75;;;12.41;73.75
57779;BME280;43608;49.486;9.640;2023-05-20T01:39:44;98879.53;;;12.48;73.91
57779;BME280;43608;49.486;9.640;2023-05-20T01:40:15;98853.06;;;12.37;73.89
57779;BME280;43608;49.486;9.640;2023-05-20T01:40:46;98849.56;;;12.32;73.65
57779;BME280;43608;49.486;9.640;2023-05-20T01:41:18;98869.78;;;12.47;73.62
57779;BME280;43608;49.486;9.640;2023-05-20T01:41:50;98845.09;;;12.34;73.98
57779;BME280;43608;49.486;9.640;2023-05-20T01:42:21;98866.25;;;12.46;73.72
57779;BME280;43608;49.486;9.640;2023-05-20T01:42:52;98856.56;;;12.39;73.80
57779;BME280;43608;49.486;9.640;2023-05-20T01:43:24;98867.16;;;12.45;73.83
57779;BME280;43608;49.486;9.640;2023-05-20T01:43:56;98853.06;;;12.35;73.75
57779;BME280;43608;49.486;9.640;2023-05-20T01:44:27;98857.38;;;12.46;73.77
57779;BME280;43608;49.486;9.640;2023-05-20T01:44:58;98874.22;;;12.48;73.92
57779;BME280;43608;49.486;9.640;2023-05-20T01:45:28;98872.44;;;12.48;73.96
57779;BME280;43608;49.486;9.640;2023-05-20T01:45:59;98865.34;;;12.49;73.96
57779;BME280;43608;49.486;9.640;2023-05-20T01:46:32;98868.94;;;12.46;73.84
57779;BME280;43608;49.486;9.640;2023-05-20T01:47:03;98860.09;;;12.43;73.84
57779;BME280;43608;49.486;9.640;2023-05-20T01:47:34;98868.00;;;12.49;73.86
57779;BME280;43608;49.486;9.640;2023-05-20T01:48:04;98847.75;;;12.37;73.82
57779;BME280;43608;49.486;9.640;2023-05-20T01:48:34;98854.78;;;12.43;73.91
57779;BME280;43608;49.486;9.640;2023-05-20T01:49:05;98865.34;;;12.49;73.65
57779;BME280;43608;49.486;9.640;2023-05-20T01:49:35;98867.09;;;12.51;73.94
57779;BME280;43608;49.486;9.640;2023-05-20T01:50:06;98876.84;;;12.51;73.71
57779;BME280;43608;49.486;9.640;2023-05-20T01:50:37;98856.53;;;12.44;73.79
57779;BME280;43608;49.486;9.640;2023-05-20T01:51:08;98849.47;;;12.43;73.75
57779;BME280;43608;49.486;9.640;2023-05-20T01:51:38;98857.41;;;12.47;73.69
57779;BME280;43608;49.486;9.640;2023-05-20T01:52:09;98847.66;;;12.43;73.59
57779;BME280;43608;49.486;9.640;2023-05-20T01:52:39;98860.03;;;12.49;73.71
57779;BME280;43608;49.486;9.640;2023-05-20T01:53:09;98867.97;;;12.55;73.40
57779;BME280;43608;49.486;9.640;2023-05-20T01:53:40;98875.03;;;12.58;73.61
57779;BME280;43608;49.486;9.640;2023-05-20T01:54:10;98867.94;;;12.56;73.68
57779;BME280;43608;49.486;9.640;2023-05-20T01:54:41;98872.38;;;12.56;73.54
57779;BME280;43608;49.486;9.640;2023-05-20T01:55:11;98872.38;;;12.56;73.29
57779;BME280;43608;49.486;9.640;2023-05-20T01:55:41;98854.75;;;12.44;73.41
57779;BME280;43608;49.486;9.640;2023-05-20T01:56:12;98867.09;;;12.53;73.53
57779;BME280;43608;49.486;9.640;2023-05-20T01:56:42;98859.97;;;12.56;73.19
57779;BME280;43608;49.486;9.640;2023-05-20T01:57:12;98871.47;;;12.60;73.56
57779;BME280;43608;49.486;9.640;2023-05-20T01:57:43;98812.38;;;12.30;73.51
57779;BME280;43608;49.486;9.640;2023-05-20T01:58:13;98857.31;;;12.53;73.50
57779;BME280;43608;49.486;9.640;2023-05-20T01:58:44;98840.56;;;12.47;73.53
57779;BME280;43608;49.486;9.640;2023-05-20T01:59:14;98863.47;;;12.62;73.38
57779;BME280;43608;49.486;9.640;2023-05-20T01:59:45;98870.53;;;12.61;73.30
57779;BME280;43608;49.486;9.640;2023-05-20T02:00:15;98857.28;;;12.58;73.50
57779;BME280;43608;49.486;9.640;2023-05-20T02:00:46;98857.28;;;12.60;73.57
57779;BME280;43608;49.486;9.640;2023-05-20T02:01:16;98820.28;;;12.35;73.31
57779;BME280;43608;49.486;9.640;2023-05-20T02:01:46;98863.47;;;12.62;73.25
57779;BME280;43608;49.486;9.640;2023-05-20T02:02:17;98866.13;;;12.62;73.46
57779;BME280;43608;49.486;9.640;2023-05-20T02:02:47;98873.16;;;12.66;73.37
57779;BME280;43608;49.486;9.640;2023-05-20T02:03:18;98860.81;;;12.59;73.10
57779;BME280;43608;49.486;9.640;2023-05-20T02:03:48;98874.03;;;12.66;73.19
57779;BME280;43608;49.486;9.640;2023-05-20T02:04:18;98845.78;;;12.56;73.23
57779;BME280;43608;49.486;9.640;2023-05-20T02:04:53;98861.69;;;12.61;73.18
57779;BME280;43608;49.486;9.640;2023-05-20T02:05:23;98866.09;;;12.65;73.23
57779;BME280;43608;49.486;9.640;2023-05-20T02:05:53;98868.72;;;12.69;73.22
57779;BME280;43608;49.486;9.640;2023-05-20T02:06:24;98852.88;;;12.57;73.31
57779;BME280;43608;49.486;9.640;2023-05-20T02:06:54;98840.53;;;12.51;73.21
57779;BME280;43608;49.486;9.640;2023-05-20T02:07:25;98877.53;;;12.71;73.12
57779;BME280;43608;49.486;9.640;2023-05-20T02:07:55;98867.84;;;12.67;73.09
57779;BME280;43608;49.486;9.640;2023-05-20T02:08:25;98867.84;;;12.66;73.36
57779;BME280;43608;49.486;9.640;2023-05-20T02:08:56;98851.06;;;12.61;73.07
57779;BME280;43608;49.486;9.640;2023-05-20T02:09:27;98851.91;;;12.64;73.13
57779;BME280;43608;49.486;9.640;2023-05-20T02:09:57;98870.47;;;12.72;73.05
57779;BME280;43608;49.486;9.640;2023-05-20T02:10:27;98869.53;;;12.73;73.36
57779;BME280;43608;49.486;9.640;2023-05-20T02:10:58;98853.69;;;12.64;72.99
57779;BME280;43608;49.486;9.640;2023-05-20T02:11:28;98866.03;;;12.71;73.20
57779;BME280;43608;49.486;9.640;2023-05-20T02:11:59;98864.25;;;12.71;73.06
57779;BME280;43608;49.486;9.640;2023-05-20T02:12:29;98847.50;;;12.63;73.15
57779;BME280;43608;49.486;9.640;2023-05-20T02:12:59;98853.69;;;12.64;73.13
57779;BME280;43608;49.486;9.640;2023-05-20T02:13:30;98851.88;;;12.67;73.05
57779;BME280;43608;49.486;9.640;2023-05-20T02:14:00;98853.66;;;12.67;73.27
57779;BME280;43608;49.486;9.640;2023-05-20T02:14:31;98835.13;;;12.59;73.25
57779;BME280;43608;49.486;9.640;2023-05-20T02:15:01;98858.06;;;12.69;73.12
57779;BME280;43608;49.486;9.640;2023-05-20T02:15:31;98857.16;;;12.72;73.12
57779;BME280;43608;49.486;9.640;2023-05-20T02:16:02;98858.91;;;12.75;73.47
57779;BME280;43608;49.486;9.640;2023-05-20T02:16:32;98871.31;;;12.74;72.96
57779;BME280;43608;49.486;9.640;2023-05-20T02:17:03;98860.66;;;12.74;73.35
57779;BME280;43608;49.486;9.640;2023-05-20T02:17:33;98862.44;;;12.75;73.09
57779;BME280;43608;49.486;9.640;2023-05-20T02:18:03;98842.19;;;12.62;73.22
57779;BME280;43608;49.486;9.640;2023-05-20T02:18:37;98858.91;;;12.75;73.20
57779;BME280;43608;49.486;9.640;2023-05-20T02:19:07;98855.38;;;12.72;73.10
57779;BME280;43608;49.486;9.640;2023-05-20T02:19:44;98851.84;;;12.72;73.31
57779;BME280;43608;49.486;9.640;2023-05-20T02:20:15;98847.44;;;12.68;73.06
57779;BME280;43608;49.486;9.640;2023-05-20T02:20:46;98849.19;;;12.72;73.21
57779;BME280;43608;49.486;9.640;2023-05-20T02:21:16;98855.34;;;12.74;73.22
57779;BME280;43608;49.486;9.640;2023-05-20T02:21:46;98852.72;;;12.72;73.29
57779;BME280;43608;49.486;9.640;2023-05-20T02:22:18;98852.69;;;12.74;73.32
57779;BME280;43608;49.486;9.640;2023-05-20T02:22:48;98857.13;;;12.75;73.42
57779;BME280;43608;49.486;9.640;2023-05-20T02:23:18;98843.91;;;12.66;73.28
57779;BME280;43608;49.486;9.640;2023-05-20T02:23:49;98865.97;;;12.76;73.25
57779;BME280;43608;49.486;9.640;2023-05-20T02:24:19;98857.13;;;12.75;73.41
57779;BME280;43608;49.486;9.640;2023-05-20T02:24:50;98850.06;;;12.71;73.43
57779;BME280;43608;49.486;9.640;2023-05-20T02:25:20;98853.59;;;12.73;73.33
57779;BME280;43608;49.486;9.640;2023-05-20T02:25:51;98835.97;;;12.61;73.21
57779;BME280;43608;49.486;9.640;2023-05-20T02:26:21;98857.16;;;12.72;73.50
57779;BME280;43608;49.486;9.640;2023-05-20T02:26:51;98857.13;;;12.75;73.67
57779;BME280;43608;49.486;9.640;2023-05-20T02:27:23;98858.91;;;12.75;73.45
57779;BME280;43608;49.486;9.640;2023-05-20T02:27:53;98866.00;;;12.74;73.27
57779;BME280;43608;49.486;9.640;2023-05-20T02:28:24;98856.25;;;12.75;73.38
57779;BME280;43608;49.486;9.640;2023-05-20T02:28:54;98851.81;;;12.73;73.36
57779;BME280;43608;49.486;9.640;2023-05-20T02:29:25;98801.63;;;12.41;73.45
57779;BME280;43608;49.486;9.640;2023-05-20T02:29:56;98836.84;;;12.65;73.51
57779;BME280;43608;49.486;9.640;2023-05-20T02:30:26;98858.00;;;12.74;73.62
57779;BME280;43608;49.486;9.640;2023-05-20T02:30:56;98836.81;;;12.66;73.53
57779;BME280;43608;49.486;9.640;2023-05-20T02:31:27;98854.47;;;12.73;73.48
57779;BME280;43608;49.486;9.640;2023-05-20T02:31:57;98858.91;;;12.73;73.64
57779;BME280;43608;49.486;9.640;2023-05-20T02:32:27;98851.84;;;12.70;73.58
57779;BME280;43608;49.486;9.640;2023-05-20T02:32:58;98861.56;;;12.75;73.58
57779;BME280;43608;49.486;9.640;2023-05-20T02:33:29;98843.88;;;12.69;73.48
57779;BME280;43608;49.486;9.640;2023-05-20T02:34:00;98853.59;;;12.75;73.43
57779;BME280;43608;49.486;9.640;2023-05-20T02:34:31;98847.38;;;12.74;73.75
57779;BME280;43608;49.486;9.640;2023-05-20T02:35:01;98854.47;;;12.75;73.70
57779;BME280;43608;49.486;9.640;2023-05-20T02:35:32;98842.13;;;12.69;73.73
57779;BME280;43608;49.486;9.640;2023-05-20T02:36:03;98851.84;;;12.72;73.45
57779;BME280;43608;49.486;9.640;2023-05-20T02:36:33;98852.72;;;12.71;73.21
57779;BME280;43608;49.486;9.640;2023-05-20T02:37:04;98850.03;;;12.74;73.64
57779;BME280;43608;49.486;9.640;2023-05-20T02:37:34;98850.00;;;12.76;73.64
57779;BME280;43608;49.486;9.640;2023-05-20T02:38:05;98834.19;;;12.65;73.76
57779;BME280;43608;49.486;9.640;2023-05-20T02:38:35;98838.59;;;12.67;73.98
57779;BME280;43608;49.486;9.640;2023-05-20T02:39:05;98835.06;;;12.64;73.76
57779;BME280;43608;49.486;9.640;2023-05-20T02:39:36;98835.91;;;12.67;73.81
57779;BME280;43608;49.486;9.640;2023-05-20T02:40:07;98850.06;;;12.72;73.88
57779;BME280;43608;49.486;9.640;2023-05-20T02:40:38;98848.25;;;12.73;73.69
57779;BME280;43608;49.486;9.640;2023-05-20T02:41:09;98819.19;;;12.56;73.99
57779;BME280;43608;49.486;9.640;2023-05-20T02:41:39;98850.91;;;12.73;73.85
57779;BME280;43608;49.486;9.640;2023-05-20T02:42:10;98847.41;;;12.72;74.02
57779;BME280;43608;49.486;9.640;2023-05-20T02:42:41;98824.53;;;12.58;73.86
57779;BME280;43608;49.486;9.640;2023-05-20T02:43:11;98842.97;;;12.71;73.80
57779;BME280;43608;49.486;9.640;2023-05-20T02:43:42;98844.75;;;12.71;73.69
57779;BME280;43608;49.486;9.640;2023-05-20T02:44:14;98845.63;;;12.71;73.87
57779;BME280;43608;49.486;9.640;2023-05-20T02:44:44;98846.50;;;12.70;74.32
57779;BME280;43608;49.486;9.640;2023-05-20T02:45:15;98843.03;;;12.67;74.07
57779;BME280;43608;49.486;9.640;2023-05-20T02:45:45;98832.44;;;12.62;73.97
57779;BME280;43608;49.486;9.640;2023-05-20T02:46:16;98828.88;;;12.63;73.99
57779;BME280;43608;49.486;9.640;2023-05-20T02:46:48;98823.63;;;12.57;73.99